Home > Products > Valid Products > TAF

000
FTUS42 KKEY 210521
TAFEYW
TAF
KEYW 210521Z 2106/2206 18005KT P6SM VCSH SCT017 SCT080 BKN150
      TEMPO 2106/2110 BKN017 BKN080
     FM211100 23006KT P6SM SCT017 SCT080 BKN200
     FM211700 27007KT P6SM SCT020 SCT060 BKN200=



000
FTUS42 KKEY 210521
TAFMTH
TAF
KMTH 210521Z 2106/2206 22004KT P6SM SCT017 SCT080 BKN200
      TEMPO 2107/2110 BKN017 BKN080
     FM211700 26005KT P6SM VCSH SCT020 SCT060 BKN200
     FM212200 VRB04KT P6SM SCT020 SCT060 BKN200=



000
FTUS42 KKEY 202337
TAFMTH
TAF
KMTH 202337Z 2100/2124 21004KT P6SM FEW017 BKN200
     FM210300 23004KT P6SM SCT017 BKN200
      TEMPO 2106/2110 BKN017 BKN200
     FM211800 25005KT P6SM SCT017 SCT060 BKN200=



000
FTUS42 KKEY 202337
TAFMTH
TAF
KMTH 202337Z 2100/2124 21004KT P6SM FEW017 BKN200
     FM210300 23004KT P6SM SCT017 BKN200
      TEMPO 2106/2110 BKN017 BKN200
     FM211800 25005KT P6SM SCT017 SCT060 BKN200=



000
FTUS42 KKEY 202336
TAFEYW
TAF
KEYW 202336Z 2100/2124 21005KT P6SM FEW017 BKN200
     FM210300 22006KT P6SM SCT017 BKN200
      TEMPO 2106/2110 BKN017 BKN200
     FM211800 25007KT P6SM SCT017 SCT060 BKN200=



000
FTUS42 KKEY 202336
TAFEYW
TAF
KEYW 202336Z 2100/2124 21005KT P6SM FEW017 BKN200
     FM210300 22006KT P6SM SCT017 BKN200
      TEMPO 2106/2110 BKN017 BKN200
     FM211800 25007KT P6SM SCT017 SCT060 BKN200=



000
FTUS42 KKEY 202336
TAFEYW
TAF
KEYW 202336Z 2100/2124 21005KT P6SM FEW017 BKN200
     FM210300 22006KT P6SM SCT017 BKN200
      TEMPO 2106/2110 BKN017 BKN200
     FM211800 25007KT P6SM SCT017 SCT060 BKN200=



000
FTUS42 KKEY 202336
TAFEYW
TAF
KEYW 202336Z 2100/2124 21005KT P6SM FEW017 BKN200
     FM210300 22006KT P6SM SCT017 BKN200
      TEMPO 2106/2110 BKN017 BKN200
     FM211800 25007KT P6SM SCT017 SCT060 BKN200=



000
FTUS42 KKEY 201734
TAFMTH
TAF
KMTH 201734Z 2018/2118 19008KT P6SM SCT012 SCT120
     FM202300 20010KT P6SM SCT018 BKN250=



000
FTUS42 KKEY 201734
TAFEYW
TAF
KEYW 201734Z 2018/2118 18010KT P6SM FEW018
     FM202200 20011KT P6SM SCT018 BKN250=



000
FTUS42 KKEY 201734
TAFEYW
TAF
KEYW 201734Z 2018/2118 18010KT P6SM FEW018
     FM202200 20011KT P6SM SCT018 BKN250=



000
FTUS42 KKEY 201720
TAFEYW
TAF
KEYW 201720Z 2018/2118 18010KT P6SM FEW018
     FM202200 20005KT P6SM SCT028 SCT250=



000
FTUS42 KKEY 201720
TAFEYW
TAF
KEYW 201720Z 2018/2118 18010KT P6SM FEW018
     FM202200 20005KT P6SM SCT028 SCT250=



000
FTUS42 KKEY 201511 AAA
TAFMTH
TAF AMD
KMTH 201511Z 2015/2112 16006KT P6SM SCT012 SCT120
     FM202300 18005KT P6SM SCT028 SCT250=



000
FTUS42 KKEY 201120
TAFMTH
TAF
KMTH 201120Z 2012/2112 16006KT P6SM FEW018
     FM202300 18005KT P6SM SCT028 SCT250=



000
FTUS42 KKEY 201120
TAFEYW
TAF
KEYW 201120Z 2012/2112 18008KT P6SM FEW018
     FM202200 20005KT P6SM SCT028 SCT250=



000
FTUS42 KKEY 201120
TAFEYW
TAF
KEYW 201120Z 2012/2112 18008KT P6SM FEW018
     FM202200 20005KT P6SM SCT028 SCT250=



000
FTUS42 KKEY 200912 AAA
TAFEYW
TAF AMD
KEYW 200912Z 2009/2106 19009KT P6SM SCT010 SCT250
     FM201800 23005KT P6SM SCT020 SCT250=



000
FTUS42 KKEY 200912 AAA
TAFEYW
TAF AMD
KEYW 200912Z 2009/2106 19009KT P6SM SCT010 SCT250
     FM201800 23005KT P6SM SCT020 SCT250=



000
FTUS42 KKEY 200912 AAA
TAFEYW
TAF AMD
KEYW 200912Z 2009/2106 19009KT P6SM SCT010 SCT250
     FM201800 23005KT P6SM SCT020 SCT250=



000
FTUS42 KKEY 200912 AAA
TAFEYW
TAF AMD
KEYW 200912Z 2009/2106 19009KT P6SM SCT010 SCT250
     FM201800 23005KT P6SM SCT020 SCT250=



000
FTUS42 KKEY 200541
TAFEYW
TAF
KEYW 200541Z 2006/2106 15007KT P6SM SCT011 BKN250
      TEMPO 2006/2008 BKN011
     FM200800 19007KT P6SM SCT012 SCT250
     FM201800 23005KT P6SM SCT020 SCT250=



000
FTUS42 KKEY 200541
TAFMTH
TAF
KMTH 200541Z 2006/2106 16004KT P6SM VCSH BKN011 BKN250
      TEMPO 2006/2008 SCT011
     FM200800 20007KT P6SM SCT013 SCT250
     FM202100 25005KT P6SM SCT020 SCT250=



000
FTUS42 KKEY 200541
TAFEYW
TAF
KEYW 200541Z 2006/2106 15007KT P6SM SCT011 BKN250
      TEMPO 2006/2008 BKN011
     FM200800 19007KT P6SM SCT012 SCT250
     FM201800 23005KT P6SM SCT020 SCT250=



000
FTUS42 KKEY 192321
TAFEYW
TAF
KEYW 192321Z 2000/2024 13005KT P6SM FEW016 SCT250
     FM200300 16007KT P6SM SCT016 SCT250
     FM201500 19007KT P6SM FEW016 SCT250=



000
FTUS42 KKEY 192321
TAFMTH
TAF
KMTH 192321Z 2000/2024 13004KT P6SM FEW016 SCT250
     FM200300 16004KT P6SM SCT016 SCT250
     FM201500 20005KT P6SM FEW016 SCT250=



000
FTUS42 KKEY 192321
TAFEYW
TAF
KEYW 192321Z 2000/2024 13005KT P6SM FEW016 SCT250
     FM200300 16007KT P6SM SCT016 SCT250
     FM201500 19007KT P6SM FEW016 SCT250=



000
FTUS42 KKEY 191752
TAFEYW
TAF
KEYW 191752Z 1918/2018 15009KT P6SM SCT018 SCT300
     FM200100 12006KT P6SM FEW019 SCT300=



000
FTUS42 KKEY 191752
TAFMTH
TAF
KMTH 191752Z 1918/2018 16006KT P6SM FEW015 SCT300
     FM192300 12004KT P6SM FEW019 SCT300=



000
FTUS42 KKEY 191752
TAFEYW
TAF
KEYW 191752Z 1918/2018 15009KT P6SM SCT018 SCT300
     FM200100 12006KT P6SM FEW019 SCT300=



000
FTUS42 KKEY 191752
TAFEYW
TAF
KEYW 191752Z 1918/2018 15009KT P6SM SCT018 SCT300
     FM200100 12006KT P6SM FEW019 SCT300=



000
FTUS42 KKEY 191500 AAA
TAFEYW
TAF AMD
KEYW 191500Z 1915/2012 15009KT P6SM SCT018 SCT300
     FM200100 12006KT P6SM FEW019 SCT300=



000
FTUS42 KKEY 191500 AAA
TAFEYW
TAF AMD
KEYW 191500Z 1915/2012 15009KT P6SM SCT018 SCT300
     FM200100 12006KT P6SM FEW019 SCT300=



000
FTUS42 KKEY 191120
TAFEYW
TAF
KEYW 191120Z 1912/2012 12008KT P6SM FEW016 SCT300
     FM191500 15009KT P6SM SCT018 SCT300
     FM200100 12006KT P6SM FEW019 SCT300=



000
FTUS42 KKEY 191120
TAFMTH
TAF
KMTH 191120Z 1912/2012 16006KT P6SM FEW015 SCT300
     FM192300 12004KT P6SM FEW019 SCT300=



000
FTUS42 KKEY 191120
TAFEYW
TAF
KEYW 191120Z 1912/2012 12008KT P6SM FEW016 SCT300
     FM191500 15009KT P6SM SCT018 SCT300
     FM200100 12006KT P6SM FEW019 SCT300=



000
FTUS42 KKEY 191120
TAFEYW
TAF
KEYW 191120Z 1912/2012 12008KT P6SM FEW016 SCT300
     FM191500 15009KT P6SM SCT018 SCT300
     FM200100 12006KT P6SM FEW019 SCT300=



000
FTUS42 KKEY 191120
TAFMTH
TAF
KMTH 191120Z 1912/2012 16006KT P6SM FEW015 SCT300
     FM192300 12004KT P6SM FEW019 SCT300=



000
FTUS42 KKEY 190915 AAA
TAFEYW
TAF AMD
KEYW 190915Z 1909/2006 15008KT P6SM FEW015 BKN300=



000
FTUS42 KKEY 190915 AAA
TAFEYW
TAF AMD
KEYW 190915Z 1909/2006 15008KT P6SM FEW015 BKN300=



000
FTUS42 KKEY 190915 AAA
TAFEYW
TAF AMD
KEYW 190915Z 1909/2006 15008KT P6SM FEW015 BKN300=



000
FTUS42 KKEY 190538
TAFMTH
TAF
KMTH 190538Z 1906/2006 16006KT P6SM FEW015 BKN300=



000
FTUS42 KKEY 190538
TAFEYW
TAF
KEYW 190538Z 1906/2006 16008KT P6SM FEW015 BKN300=



000
FTUS42 KKEY 190538
TAFEYW
TAF
KEYW 190538Z 1906/2006 16008KT P6SM FEW015 BKN300=



000
FTUS42 KKEY 182326
TAFMTH
TAF
KMTH 182326Z 1900/1924 11005KT P6SM FEW015
     FM190400 14006KT P6SM SCT020=



000
FTUS42 KKEY 182326
TAFEYW
TAF
KEYW 182326Z 1900/1924 11007KT P6SM FEW015
     FM190400 15007KT P6SM SCT020=



000
FTUS42 KKEY 182326
TAFEYW
TAF
KEYW 182326Z 1900/1924 11007KT P6SM FEW015
     FM190400 15007KT P6SM SCT020=



000
FTUS42 KKEY 181730
TAFEYW
TAF
KEYW 181730Z 1818/1918 15011KT P6SM FEW018=



000
FTUS42 KKEY 181730
TAFEYW
TAF
KEYW 181730Z 1818/1918 15011KT P6SM FEW018=



000
FTUS42 KKEY 181730
TAFMTH
TAF
KMTH 181730Z 1818/1918 15007KT P6SM FEW018=



000
FTUS42 KKEY 181730
TAFEYW
TAF
KEYW 181730Z 1818/1918 15011KT P6SM FEW018=



000
FTUS42 KKEY 181505 AAA
TAFEYW
TAF AMD
KEYW 181505Z 1815/1912 14011KT P6SM FEW020=



000
FTUS42 KKEY 181505 AAA
TAFEYW
TAF AMD
KEYW 181505Z 1815/1912 14011KT P6SM FEW020=



000
FTUS42 KKEY 181129
TAFMTH
TAF
KMTH 181129Z 1812/1912 14005KT P6SM FEW020=



000
FTUS42 KKEY 181129
TAFEYW
TAF
KEYW 181129Z 1812/1912 14008KT P6SM FEW020=



000
FTUS42 KKEY 181129
TAFEYW
TAF
KEYW 181129Z 1812/1912 14008KT P6SM FEW020=



000
FTUS42 KKEY 180923 AAA
TAFEYW
TAF AMD
KEYW 180923Z 1809/1906 14008KT P6SM FEW020 SCT250=



000
FTUS42 KKEY 180923 AAA
TAFEYW
TAF AMD
KEYW 180923Z 1809/1906 14008KT P6SM FEW020 SCT250=



    US Dept of Commerce
    National Oceanic and Atmospheric Administration
    National Weather Service
    1325 East West Highway
    Silver Spring, MD 20910
    Page Author: NWS Internet Services Team
Disclaimer
Information Quality
Credits
Glossary
Privacy Policy
Freedom of Information Act (FOIA)
About Us
Career Opportunities